Time;durP1;ratioP1;P1;durP2;ratioP2;P2;SDS_P1;SDS_P2;PMS_P1;PMS_P2;Temp;Humidity;BMP_temperature;BMP_pressure;BME280_temperature;BME280_humidity;BME280_pressure;Samples;Min_cycle;Max_cycle;Signal;HPM_P1;HPM_P2
2023/08/07 00:02:02;;;;;;;4.15;2.85;;;17.20;99.90;;;;;;5014008;28;20088;-84
2023/08/07 00:04:28;;;;;;;5.88;3.20;;;17.20;99.90;;;;;;5014581;28;20046;-84
2023/08/07 00:06:54;;;;;;;5.43;2.92;;;17.20;99.90;;;;;;5014498;28;20395;-84
2023/08/07 00:09:20;;;;;;;8.57;4.50;;;17.10;99.90;;;;;;5014757;28;20133;-83
2023/08/07 00:11:45;;;;;;;5.30;3.08;;;17.10;99.90;;;;;;5012864;28;20075;-83
2023/08/07 00:14:11;;;;;;;5.75;3.30;;;17.10;99.90;;;;;;5014176;28;20049;-83
2023/08/07 00:16:36;;;;;;;7.95;4.47;;;17.10;99.90;;;;;;5012620;28;20518;-83
2023/08/07 00:19:02;;;;;;;4.40;2.80;;;17.10;99.90;;;;;;5014698;28;20512;-83
2023/08/07 00:21:28;;;;;;;4.30;3.00;;;17.10;99.90;;;;;;5014145;28;20095;-83
2023/08/07 00:23:57;;;;;;;6.97;3.53;;;17.10;99.90;;;;;;5014286;28;20046;-83
2023/08/07 00:26:23;;;;;;;4.75;2.80;;;17.00;99.90;;;;;;5014115;28;20052;-83
2023/08/07 00:28:51;;;;;;;6.93;3.60;;;17.10;99.90;;;;;;5014146;28;20042;-83
2023/08/07 00:31:17;;;;;;;6.22;3.25;;;17.00;99.90;;;;;;5013279;28;20111;-83
2023/08/07 00:33:43;;;;;;;4.72;2.90;;;17.00;99.90;;;;;;5014137;28;20081;-83
2023/08/07 00:36:09;;;;;;;6.65;3.15;;;17.00;99.90;;;;;;5013554;28;20113;-82
2023/08/07 00:38:34;;;;;;;5.15;3.35;;;16.90;99.90;;;;;;5011327;28;20054;-84
2023/08/07 00:41:00;;;;;;;8.18;3.53;;;16.90;99.90;;;;;;5012805;28;20152;-83
2023/08/07 00:43:26;;;;;;;6.60;3.30;;;16.90;99.90;;;;;;5012832;28;21181;-83
2023/08/07 00:45:51;;;;;;;6.72;3.20;;;16.90;99.90;;;;;;5013459;28;20037;-83
2023/08/07 00:48:17;;;;;;;6.55;3.28;;;16.90;99.90;;;;;;5012685;28;20077;-84
2023/08/07 00:50:46;;;;;;;6.22;2.88;;;16.90;99.90;;;;;;5014216;28;20193;-83
2023/08/07 00:53:11;;;;;;;5.10;2.50;;;16.80;99.90;;;;;;5013121;28;20141;-83
2023/08/07 00:55:37;;;;;;;5.40;3.00;;;16.80;99.90;;;;;;5013678;28;20133;-83
2023/08/07 00:58:03;;;;;;;4.68;2.60;;;16.80;99.90;;;;;;5013469;28;20482;-83
2023/08/07 01:00:32;;;;;;;5.30;2.83;;;16.80;99.90;;;;;;5013430;28;20084;-83
2023/08/07 01:02:59;;;;;;;5.85;2.95;;;16.80;99.90;;;;;;5013135;28;20412;-83
2023/08/07 01:05:25;;;;;;;5.88;2.95;;;16.70;99.90;;;;;;5013498;28;20113;-83
2023/08/07 01:07:54;;;;;;;5.88;2.70;;;16.70;99.90;;;;;;5012580;28;20477;-83
2023/08/07 01:10:47;;;;;;;6.13;3.05;;;16.70;99.90;;;;;;5013525;28;20100;-83
2023/08/07 01:13:50;;;;;;;5.43;2.78;;;16.70;99.90;;;;;;4971888;28;20122;-83
2023/08/07 01:16:28;;;;;;;5.57;3.00;;;16.60;99.90;;;;;;5000429;28;20050;-83
2023/08/07 01:18:55;;;;;;;5.55;2.45;;;16.60;99.90;;;;;;5012916;28;20145;-83
2023/08/07 01:21:21;;;;;;;4.88;2.47;;;16.60;99.90;;;;;;5013186;28;20049;-81
2023/08/07 01:23:48;;;;;;;5.97;2.50;;;16.60;99.90;;;;;;5013540;28;20037;-83
2023/08/07 01:26:18;;;;;;;5.38;2.55;;;16.60;99.90;;;;;;5013377;28;20042;-83
2023/08/07 01:28:56;;;;;;;6.95;2.47;;;16.60;99.90;;;;;;5013392;28;20038;-83
2023/08/07 01:31:24;;;;;;;4.40;2.47;;;16.50;99.90;;;;;;5012429;28;20045;-83
2023/08/07 01:33:57;;;;;;;5.13;2.58;;;16.50;99.90;;;;;;5012854;28;20049;-83
2023/08/07 01:36:24;;;;;;;;;;;16.50;99.90;;;;;;5012715;28;20107;-83
2023/08/07 01:38:52;;;;;;;6.18;2.33;;;16.40;99.70;;;;;;5013142;28;20007;-83
2023/08/07 01:41:18;;;;;;;5.72;2.25;;;16.40;99.90;;;;;;5012584;28;20078;-83
2023/08/07 01:43:44;;;;;;;7.15;2.30;;;16.40;99.90;;;;;;5012767;28;20107;-83
2023/08/07 01:46:11;;;;;;;6.75;2.53;;;16.40;99.90;;;;;;5012984;28;20121;-83
2023/08/07 01:48:36;;;;;;;7.03;2.05;;;16.30;99.90;;;;;;5012858;28;20073;-83
2023/08/07 01:51:02;;;;;;;5.75;2.30;;;16.30;99.90;;;;;;5016148;28;20477;-82
2023/08/07 01:53:28;;;;;;;5.35;2.10;;;16.30;99.90;;;;;;5019397;28;20046;-83
2023/08/07 01:55:53;;;;;;;6.20;1.90;;;16.30;99.90;;;;;;5019372;28;20044;-83
2023/08/07 01:58:19;;;;;;;8.98;2.17;;;16.30;99.90;;;;;;5019340;28;20049;-83
2023/08/07 02:00:45;;;;;;;9.13;2.30;;;16.20;99.90;;;;;;5019371;28;20129;-83
2023/08/07 02:03:10;;;;;;;7.90;2.15;;;16.20;99.90;;;;;;5019137;28;20046;-83
2023/08/07 02:05:36;;;;;;;7.35;2.15;;;16.20;99.90;;;;;;5019646;28;20069;-83
2023/08/07 02:08:01;;;;;;;4.50;1.85;;;16.20;99.90;;;;;;5019288;28;20053;-83
2023/08/07 02:10:28;;;;;;;8.80;2.20;;;16.10;99.90;;;;;;5018204;28;20598;-83
2023/08/07 02:12:53;;;;;;;4.75;1.90;;;16.20;99.90;;;;;;5017664;28;20514;-83
2023/08/07 02:15:19;;;;;;;5.80;2.00;;;16.10;99.90;;;;;;5018919;28;20046;-83
2023/08/07 02:17:44;;;;;;;7.03;2.15;;;16.10;99.90;;;;;;5018855;28;20537;-83
2023/08/07 02:20:11;;;;;;;4.43;1.70;;;16.10;99.90;;;;;;5019548;28;20049;-83
2023/08/07 02:22:36;;;;;;;6.70;2.00;;;16.10;99.90;;;;;;5018827;28;20038;-83
2023/08/07 02:25:02;;;;;;;6.63;2.10;;;16.00;99.90;;;;;;5019123;28;20068;-83
2023/08/07 02:27:28;;;;;;;7.03;2.10;;;16.10;99.90;;;;;;5019550;28;20037;-83
2023/08/07 02:29:54;;;;;;;5.53;2.00;;;16.10;99.90;;;;;;5018743;28;20046;-83
2023/08/07 02:32:19;;;;;;;6.85;2.17;;;16.00;99.90;;;;;;5018282;28;20052;-83
2023/08/07 02:34:45;;;;;;;6.13;1.80;;;16.00;99.90;;;;;;5019083;28;20061;-83
2023/08/07 02:37:11;;;;;;;6.28;1.75;;;16.00;99.90;;;;;;5018989;28;20046;-83
2023/08/07 02:39:37;;;;;;;7.78;2.10;;;16.00;99.90;;;;;;5018762;28;20112;-83
2023/08/07 02:42:03;;;;;;;7.03;1.90;;;16.00;99.90;;;;;;5017881;28;20053;-83
2023/08/07 02:44:28;;;;;;;12.15;2.05;;;16.00;99.90;;;;;;5018442;28;20161;-83
2023/08/07 02:46:57;;;;;;;6.47;2.15;;;16.00;99.90;;;;;;5018922;28;20046;-83
2023/08/07 02:49:22;;;;;;;5.40;1.83;;;15.90;99.90;;;;;;5018824;28;20054;-83
2023/08/07 02:51:48;;;;;;;5.47;1.65;;;15.90;99.90;;;;;;5018891;28;20042;-83
2023/08/07 02:54:17;;;;;;;8.55;1.67;;;15.90;99.90;;;;;;5017439;28;20054;-83
2023/08/07 02:56:43;;;;;;;4.85;1.58;;;15.90;99.90;;;;;;5019294;28;20056;-83
2023/08/07 02:59:08;;;;;;;7.22;1.98;;;15.90;99.90;;;;;;5018706;28;20050;-83
2023/08/07 03:01:34;;;;;;;6.70;1.75;;;15.90;99.90;;;;;;5016738;28;20042;-83
2023/08/07 03:04:03;;;;;;;5.05;1.65;;;15.90;99.90;;;;;;5015137;28;20033;-83
2023/08/07 03:06:28;;;;;;;7.15;1.88;;;15.90;99.90;;;;;;5015000;28;20064;-83
2023/08/07 03:08:55;;;;;;;8.55;1.80;;;15.80;99.90;;;;;;5014385;28;20045;-83
2023/08/07 03:11:21;;;;;;;9.00;2.03;;;15.80;99.90;;;;;;5014539;28;20049;-83
2023/08/07 03:13:46;;;;;;;5.28;1.60;;;15.90;99.90;;;;;;5015381;28;20411;-82
2023/08/07 03:16:13;;;;;;;6.03;1.70;;;15.80;99.90;;;;;;5015542;28;20088;-83
2023/08/07 03:18:39;;;;;;;12.85;2.30;;;15.80;99.90;;;;;;5014287;28;20129;-83
2023/08/07 03:21:07;;;;;;;10.65;2.10;;;15.80;99.90;;;;;;5015284;28;20129;-83
2023/08/07 03:23:34;;;;;;;14.40;2.20;;;15.80;99.90;;;;;;5015395;28;20068;-82
2023/08/07 03:26:03;;;;;;;8.82;1.83;;;15.80;99.90;;;;;;4996115;28;20054;-83
2023/08/07 03:28:32;;;;;;;8.68;1.70;;;15.70;99.90;;;;;;4995988;28;20050;-83
2023/08/07 03:30:59;;;;;;;8.00;1.75;;;15.70;99.90;;;;;;5015049;28;20121;-84
2023/08/07 03:33:28;;;;;;;6.28;1.65;;;15.70;99.90;;;;;;5015351;28;20133;-81
2023/08/07 03:35:54;;;;;;;8.15;1.77;;;15.70;99.90;;;;;;5015016;28;20125;-83
2023/08/07 03:38:23;;;;;;;9.00;2.30;;;15.70;99.90;;;;;;5014836;28;20477;-83
2023/08/07 03:40:49;;;;;;;9.38;1.70;;;15.70;99.90;;;;;;5015629;28;20116;-82
2023/08/07 03:43:15;;;;;;;7.78;2.10;;;15.70;99.90;;;;;;5015429;28;20054;-83
2023/08/07 03:45:41;;;;;;;10.13;2.10;;;15.60;99.90;;;;;;5014541;28;20129;-82
2023/08/07 03:48:06;;;;;;;9.43;1.73;;;15.60;99.90;;;;;;5015090;28;20042;-83
2023/08/07 03:50:34;;;;;;;8.55;1.83;;;15.60;99.90;;;;;;5015254;28;20077;-83
2023/08/07 03:53:01;;;;;;;8.23;1.80;;;15.60;99.90;;;;;;5015622;28;20046;-83
2023/08/07 03:55:26;;;;;;;9.20;2.20;;;15.60;99.90;;;;;;5015238;28;20057;-83
2023/08/07 03:57:52;;;;;;;8.35;2.22;;;15.60;99.90;;;;;;5014680;28;20038;-83
2023/08/07 04:00:18;;;;;;;7.10;1.77;;;15.60;99.90;;;;;;5014756;28;20056;-84
2023/08/07 04:02:44;;;;;;;8.40;2.33;;;15.60;99.90;;;;;;5013718;28;20092;-83
2023/08/07 04:05:10;;;;;;;8.65;1.73;;;15.60;99.90;;;;;;5014908;28;20048;-83
2023/08/07 04:07:36;;;;;;;9.15;2.17;;;15.60;99.90;;;;;;5013843;28;20042;-83
2023/08/07 04:10:02;;;;;;;9.27;1.73;;;15.50;99.90;;;;;;5014507;28;20037;-83
2023/08/07 04:12:27;;;;;;;9.60;1.90;;;15.50;99.90;;;;;;5014844;28;20129;-83
2023/08/07 04:14:53;;;;;;;6.00;2.05;;;15.50;99.90;;;;;;5014217;28;20092;-83
2023/08/07 04:17:19;;;;;;;8.43;1.80;;;15.50;99.90;;;;;;5014607;28;20056;-83
2023/08/07 04:19:44;;;;;;;6.60;1.70;;;15.50;99.90;;;;;;5013125;28;20049;-83
2023/08/07 04:22:10;;;;;;;6.63;1.90;;;15.50;99.90;;;;;;5025187;28;20475;-82
2023/08/07 04:24:36;;;;;;;9.07;1.90;;;15.50;99.90;;;;;;5013653;28;20046;-83
2023/08/07 04:27:01;;;;;;;6.55;1.70;;;15.50;99.90;;;;;;5013301;28;20054;-83
2023/08/07 04:29:27;;;;;;;7.80;2.00;;;15.50;99.90;;;;;;5014800;28;20125;-84
2023/08/07 04:31:52;;;;;;;8.40;2.03;;;15.50;99.90;;;;;;5012745;28;20088;-83
2023/08/07 04:34:18;;;;;;;6.65;2.03;;;15.60;99.90;;;;;;5015324;28;20145;-83
2023/08/07 04:36:44;;;;;;;9.35;1.90;;;15.60;99.90;;;;;;5013667;28;20061;-83
2023/08/07 04:39:11;;;;;;;8.98;2.08;;;15.60;99.90;;;;;;5009105;28;20057;-83
2023/08/07 04:41:36;;;;;;;6.03;1.65;;;15.60;99.90;;;;;;5012215;28;20054;-83
2023/08/07 04:44:02;;;;;;;8.35;1.90;;;15.60;99.90;;;;;;5013730;28;20136;-83
2023/08/07 04:46:33;;;;;;;5.40;1.40;;;15.60;99.90;;;;;;5013301;28;20125;-83
2023/08/07 04:48:59;;;;;;;9.85;2.20;;;15.60;99.90;;;;;;5011106;28;20054;-83
2023/08/07 04:51:25;;;;;;;8.07;2.00;;;15.60;99.90;;;;;;5013031;28;20053;-83
2023/08/07 04:53:50;;;;;;;9.77;2.10;;;15.60;99.90;;;;;;5012008;28;20377;-83
2023/08/07 04:56:17;;;;;;;13.90;2.50;;;15.60;99.90;;;;;;5013067;28;20080;-83
2023/08/07 04:58:42;;;;;;;7.15;1.85;;;15.60;99.90;;;;;;5013676;28;20488;-82
2023/08/07 05:01:08;;;;;;;10.40;2.58;;;15.50;99.90;;;;;;5013767;28;20052;-83
2023/08/07 05:03:34;;;;;;;13.07;2.92;;;15.60;99.90;;;;;;5013128;28;20499;-83
2023/08/07 05:06:01;;;;;;;11.25;2.13;;;15.60;99.90;;;;;;5014218;28;20045;-83
2023/08/07 05:08:27;;;;;;;7.90;2.25;;;15.60;99.90;;;;;;5013894;28;20045;-83
2023/08/07 05:10:53;;;;;;;10.63;2.08;;;15.60;99.90;;;;;;5012433;28;20038;-83
2023/08/07 05:13:18;;;;;;;9.70;2.30;;;15.50;99.90;;;;;;5027293;28;20053;-83
2023/08/07 05:15:46;;;;;;;8.60;2.10;;;15.50;99.90;;;;;;5014431;28;20078;-84
2023/08/07 05:18:12;;;;;;;5.57;1.85;;;15.50;99.90;;;;;;5013994;28;20042;-84
2023/08/07 05:20:37;;;;;;;5.75;1.70;;;15.50;99.90;;;;;;5013622;28;20041;-84
2023/08/07 05:23:03;;;;;;;6.75;1.95;;;15.50;99.90;;;;;;5013109;28;20141;-83
2023/08/07 05:25:29;;;;;;;9.07;2.42;;;15.50;99.90;;;;;;5013375;28;20549;-83
2023/08/07 05:27:54;;;;;;;8.57;2.28;;;15.40;99.90;;;;;;5010557;28;20038;-83
2023/08/07 05:30:20;;;;;;;8.98;2.25;;;15.50;99.90;;;;;;5010924;28;20041;-83
2023/08/07 05:32:46;;;;;;;14.05;2.78;;;15.40;99.90;;;;;;5009558;28;20376;-83
2023/08/07 05:35:11;;;;;;;16.13;2.92;;;15.50;99.90;;;;;;5012023;28;20068;-83
2023/08/07 05:37:37;;;;;;;12.57;2.67;;;15.50;99.90;;;;;;5013821;28;20042;-84
2023/08/07 05:40:04;;;;;;;10.73;2.45;;;15.50;99.90;;;;;;5012555;28;20408;-83
2023/08/07 05:42:30;;;;;;;10.07;2.40;;;15.50;99.90;;;;;;5012484;28;20080;-83
2023/08/07 05:44:55;;;;;;;14.73;2.95;;;15.50;99.90;;;;;;5013371;28;20420;-84
2023/08/07 05:47:21;;;;;;;13.05;2.90;;;15.50;99.90;;;;;;5013294;28;20519;-84
2023/08/07 05:49:49;;;;;;;8.65;2.42;;;15.40;99.90;;;;;;5013248;28;20137;-84
2023/08/07 05:52:15;;;;;;;9.52;2.28;;;15.40;99.90;;;;;;5013137;28;20077;-84
2023/08/07 05:54:41;;;;;;;17.48;3.45;;;15.40;99.90;;;;;;5013075;28;20064;-84
2023/08/07 05:57:06;;;;;;;14.27;3.13;;;15.40;99.90;;;;;;5015357;28;20034;-83
2023/08/07 05:59:34;;;;;;;10.63;3.05;;;15.40;99.90;;;;;;5014518;28;20502;-84
2023/08/07 06:02:00;;;;;;;14.65;3.05;;;15.40;99.90;;;;;;5011338;28;20053;-83
2023/08/07 06:04:25;;;;;;;10.68;2.72;;;15.40;99.90;;;;;;5013001;28;20042;-83
2023/08/07 06:06:51;;;;;;;9.85;2.95;;;15.50;99.90;;;;;;5012593;28;20396;-83
2023/08/07 06:09:17;;;;;;;13.20;3.60;;;15.50;99.90;;;;;;5011941;28;20041;-83
2023/08/07 06:11:42;;;;;;;15.00;3.33;;;15.50;99.90;;;;;;5022121;28;20050;-83
2023/08/07 06:14:08;;;;;;;13.88;2.75;;;15.50;99.90;;;;;;5027634;28;20044;-82
2023/08/07 06:16:35;;;;;;;11.63;2.80;;;15.50;99.90;;;;;;5011567;28;20115;-83
2023/08/07 06:19:00;;;;;;;6.43;2.20;;;15.50;99.90;;;;;;5012354;28;20575;-83
2023/08/07 06:21:28;;;;;;;12.50;2.88;;;15.50;99.90;;;;;;5011382;28;20045;-83
2023/08/07 06:23:54;;;;;;;15.48;3.20;;;15.60;99.90;;;;;;5012621;28;20073;-83
2023/08/07 06:26:19;;;;;;;13.25;2.95;;;15.60;99.90;;;;;;5013463;28;20092;-83
2023/08/07 06:28:45;;;;;;;13.77;2.90;;;15.60;99.90;;;;;;5013353;28;20108;-84
2023/08/07 06:31:12;;;;;;;12.98;2.72;;;15.60;99.90;;;;;;5013203;28;20121;-84
2023/08/07 06:33:38;;;;;;;13.80;3.00;;;15.60;99.90;;;;;;5012409;28;20116;-83
2023/08/07 06:36:04;;;;;;;11.05;2.50;;;15.60;99.90;;;;;;5012479;28;20458;-83
2023/08/07 06:38:33;;;;;;;11.50;2.65;;;15.60;99.90;;;;;;5015515;28;20104;-84
2023/08/07 06:40:58;;;;;;;11.00;2.83;;;15.60;99.90;;;;;;5015865;28;20093;-83
2023/08/07 06:43:28;;;;;;;14.93;4.25;;;15.60;99.90;;;;;;5016715;28;20471;-83
2023/08/07 06:45:56;;;;;;;13.75;3.72;;;15.60;99.90;;;;;;5015433;28;20554;-83
2023/08/07 06:48:22;;;;;;;12.85;2.92;;;15.60;99.90;;;;;;5016490;28;20140;-83
2023/08/07 06:50:49;;;;;;;12.73;3.35;;;15.60;99.90;;;;;;5016526;28;20049;-83
2023/08/07 06:53:15;;;;;;;13.25;2.70;;;15.60;99.90;;;;;;5016533;28;20092;-83
2023/08/07 06:55:45;;;;;;;13.15;3.20;;;15.70;99.90;;;;;;5016004;28;20092;-83
2023/08/07 06:58:10;;;;;;;13.15;2.83;;;15.60;99.90;;;;;;5016092;28;20042;-83
2023/08/07 07:00:37;;;;;;;8.20;2.95;;;15.70;99.90;;;;;;5013471;28;20044;-83
2023/08/07 07:03:03;;;;;;;12.13;3.00;;;15.70;99.90;;;;;;5016172;28;20037;-83
2023/08/07 07:05:30;;;;;;;9.95;2.63;;;15.70;99.90;;;;;;5016217;28;20077;-81
2023/08/07 07:07:56;;;;;;;12.43;3.33;;;15.70;99.90;;;;;;5014579;28;20044;-84
2023/08/07 07:10:21;;;;;;;11.95;2.80;;;15.70;99.90;;;;;;5016001;28;20120;-83
2023/08/07 07:12:48;;;;;;;13.05;3.03;;;15.80;99.90;;;;;;5015873;28;20042;-83
2023/08/07 07:15:14;;;;;;;11.68;2.85;;;15.80;99.90;;;;;;5015498;28;20042;-82
2023/08/07 07:17:39;;;;;;;10.18;2.30;;;15.80;99.90;;;;;;5015928;28;20053;-83
2023/08/07 07:20:06;;;;;;;10.60;2.20;;;15.80;99.90;;;;;;5016104;28;20400;-84
2023/08/07 07:22:31;;;;;;;9.05;2.22;;;15.80;99.90;;;;;;5014373;28;20439;-84
2023/08/07 07:24:57;;;;;;;7.68;2.08;;;15.80;99.90;;;;;;5015778;28;20093;-83
2023/08/07 07:27:25;;;;;;;10.85;2.22;;;15.80;99.90;;;;;;5006840;28;20062;-84
2023/08/07 07:29:50;;;;;;;8.93;2.47;;;15.80;99.90;;;;;;4996387;28;20053;-84
2023/08/07 07:32:16;;;;;;;10.82;2.30;;;15.80;99.90;;;;;;4994840;28;20035;-84
2023/08/07 07:34:42;;;;;;;9.55;2.17;;;15.80;99.90;;;;;;5004523;28;20439;-84
2023/08/07 07:37:07;;;;;;;7.32;2.15;;;15.80;99.90;;;;;;5011974;28;20118;-84
2023/08/07 07:39:34;;;;;;;8.57;1.88;;;15.80;99.90;;;;;;5002480;28;20054;-83
2023/08/07 07:42:00;;;;;;;6.75;1.65;;;15.80;99.90;;;;;;4998698;28;20054;-83
2023/08/07 07:44:25;;;;;;;11.75;2.15;;;15.80;99.90;;;;;;4996220;28;20712;-83
2023/08/07 07:46:51;;;;;;;8.85;1.95;;;15.80;99.90;;;;;;4995131;28;20042;-83
2023/08/07 07:49:17;;;;;;;8.25;2.45;;;15.80;99.90;;;;;;4994849;28;20038;-83
2023/08/07 07:51:44;;;;;;;9.55;2.50;;;15.80;99.90;;;;;;4995372;28;20476;-82
2023/08/07 07:54:10;;;;;;;8.15;2.13;;;15.80;99.90;;;;;;4996990;28;20042;-83
2023/08/07 07:56:36;;;;;;;8.52;2.20;;;15.80;99.90;;;;;;4995521;28;20493;-84
2023/08/07 07:59:01;;;;;;;7.35;2.03;;;15.80;99.90;;;;;;4995041;28;20035;-84
2023/08/07 08:01:28;;;;;;;8.80;2.30;;;15.80;99.90;;;;;;4995170;28;20057;-83
2023/08/07 08:03:53;;;;;;;9.70;2.30;;;15.80;99.90;;;;;;4997194;28;20064;-83
2023/08/07 08:06:19;;;;;;;12.65;2.60;;;15.80;99.90;;;;;;5006591;28;20109;-83
2023/08/07 08:08:45;;;;;;;10.13;2.35;;;15.80;99.90;;;;;;4994583;28;20057;-83
2023/08/07 08:11:10;;;;;;;11.65;2.63;;;15.90;99.90;;;;;;5008616;28;20053;-84
2023/08/07 08:13:38;;;;;;;9.45;2.10;;;15.90;99.90;;;;;;5006867;28;20045;-83
2023/08/07 08:16:04;;;;;;;14.52;2.63;;;15.90;99.90;;;;;;4995137;28;20404;-83
2023/08/07 08:18:30;;;;;;;7.32;2.45;;;16.00;99.90;;;;;;4995102;28;20120;-85
2023/08/07 08:20:56;;;;;;;9.38;2.55;;;16.10;99.90;;;;;;5011155;28;20049;-84
2023/08/07 08:23:22;;;;;;;7.35;2.40;;;16.10;99.90;;;;;;5012961;28;20049;-84
2023/08/07 08:25:48;;;;;;;10.23;2.38;;;16.10;99.90;;;;;;5012692;28;20045;-84
2023/08/07 08:28:14;;;;;;;8.48;2.42;;;16.10;99.90;;;;;;5013718;28;20583;-84
2023/08/07 08:30:40;;;;;;;11.98;2.60;;;16.00;99.90;;;;;;5014263;28;20128;-85
2023/08/07 08:33:05;;;;;;;9.27;2.47;;;16.00;99.90;;;;;;5014237;28;20045;-84
2023/08/07 08:35:31;;;;;;;10.73;2.65;;;16.00;99.90;;;;;;5014656;28;20133;-84
2023/08/07 08:37:57;;;;;;;10.52;2.92;;;15.90;99.90;;;;;;5013078;28;20042;-83
2023/08/07 08:40:24;;;;;;;8.93;2.72;;;15.90;99.90;;;;;;5014052;28;20092;-84
2023/08/07 08:42:53;;;;;;;12.38;3.15;;;16.00;99.90;;;;;;5014446;28;20046;-84
2023/08/07 08:45:21;;;;;;;12.82;3.22;;;15.90;99.90;;;;;;5013280;28;20062;-84
2023/08/07 08:47:49;;;;;;;15.65;3.13;;;16.00;99.90;;;;;;5012283;28;20038;-84
2023/08/07 08:50:14;;;;;;;13.32;3.42;;;16.00;99.90;;;;;;5013273;28;20404;-83
2023/08/07 08:52:45;;;;;;;10.90;3.05;;;16.10;99.90;;;;;;4979447;28;20056;-83
2023/08/07 08:55:12;;;;;;;12.93;2.92;;;16.10;99.90;;;;;;5013036;28;20129;-83
2023/08/07 08:57:39;;;;;;;8.27;2.60;;;16.20;99.90;;;;;;5012040;28;20044;-83
2023/08/07 09:00:17;;;;;;;13.32;2.67;;;16.30;99.90;;;;;;5013223;28;20424;-83
2023/08/07 09:02:50;;;;;;;10.13;3.00;;;16.30;99.90;;;;;;5012043;28;20476;-82
2023/08/07 09:05:17;;;;;;;8.73;2.65;;;16.40;99.90;;;;;;5013053;28;20575;-83
2023/08/07 09:07:43;;;;;;;12.10;2.90;;;16.50;99.90;;;;;;5012225;28;20046;-83
2023/08/07 09:10:16;;;;;;;11.73;2.70;;;16.50;99.90;;;;;;5007993;28;20054;-82
2023/08/07 09:12:51;;;;;;;13.23;2.85;;;16.60;99.90;;;;;;5013525;28;20115;-83
2023/08/07 09:15:19;;;;;;;9.57;2.58;;;16.60;99.70;;;;;;5003514;28;20038;-82
2023/08/07 09:17:46;;;;;;;10.55;2.50;;;16.60;99.70;;;;;;4997011;28;20068;-82
2023/08/07 09:20:13;;;;;;;11.13;2.40;;;16.70;99.10;;;;;;4999788;28;20039;-82
2023/08/07 09:22:42;;;;;;;9.00;2.50;;;16.80;98.20;;;;;;4995712;28;20042;-82
2023/08/07 09:25:09;;;;;;;11.48;2.58;;;16.80;97.40;;;;;;4990783;28;20049;-83
2023/08/07 09:27:36;;;;;;;14.10;2.65;;;16.80;96.80;;;;;;5009324;28;20046;-82
2023/08/07 09:30:02;;;;;;;10.52;2.30;;;16.90;96.60;;;;;;5010544;28;20125;-82
2023/08/07 09:32:28;;;;;;;11.05;2.42;;;17.00;96.40;;;;;;5011519;28;20504;-83
2023/08/07 09:34:55;;;;;;;8.70;2.35;;;17.00;96.30;;;;;;5004716;28;20038;-83
2023/08/07 09:37:20;;;;;;;7.95;2.10;;;17.10;95.50;;;;;;5000092;28;20077;-83
2023/08/07 09:39:46;;;;;;;11.80;2.80;;;17.10;95.50;;;;;;5000971;28;20120;-83
2023/08/07 09:42:16;;;;;;;7.90;2.17;;;17.20;95.20;;;;;;5012464;28;20407;-83
2023/08/07 09:44:42;;;;;;;15.07;2.55;;;17.20;94.30;;;;;;4999771;28;20356;-82
2023/08/07 09:47:18;;;;;;;11.25;2.55;;;17.20;94.10;;;;;;5012557;28;20057;-83
2023/08/07 09:49:45;;;;;;;12.52;2.58;;;17.20;94.40;;;;;;5010959;28;20054;-83
2023/08/07 09:52:15;;;;;;;10.45;2.47;;;17.20;94.50;;;;;;5011416;28;20058;-82
2023/08/07 09:54:41;;;;;;;10.35;2.50;;;17.20;94.20;;;;;;5010389;28;20165;-82
2023/08/07 09:57:07;;;;;;;11.75;2.60;;;17.20;94.20;;;;;;5001982;28;20042;-82
2023/08/07 09:59:34;;;;;;;7.80;2.10;;;17.20;94.10;;;;;;4993845;28;20260;-82
2023/08/07 10:02:04;;;;;;;10.73;2.90;;;17.20;94.90;;;;;;5007788;28;20054;-83
2023/08/07 10:04:30;;;;;;;13.38;2.75;;;17.20;95.00;;;;;;5008033;28;20034;-83
2023/08/07 10:06:57;;;;;;;10.02;3.05;;;17.20;94.80;;;;;;5008005;28;20050;-82
2023/08/07 10:09:23;;;;;;;13.63;2.88;;;17.30;94.90;;;;;;5012117;28;20033;-82
2023/08/07 10:11:50;;;;;;;11.20;3.25;;;17.30;94.70;;;;;;5009849;28;20046;-82
2023/08/07 10:14:16;;;;;;;12.82;2.80;;;17.30;94.70;;;;;;5023393;28;20091;-82
2023/08/07 10:16:43;;;;;;;12.30;2.60;;;17.40;94.30;;;;;;5016684;28;20049;-83
2023/08/07 10:19:09;;;;;;;11.73;2.60;;;17.40;94.40;;;;;;5012695;28;20125;-82
2023/08/07 10:21:39;;;;;;;10.73;2.20;;;17.50;94.60;;;;;;5016788;28;20089;-83
2023/08/07 10:24:06;;;;;;;12.77;3.00;;;17.50;93.70;;;;;;5014843;28;20100;-82
2023/08/07 10:26:34;;;;;;;13.50;2.58;;;17.50;93.60;;;;;;5014497;28;20050;-82
2023/08/07 10:29:02;;;;;;;8.27;2.28;;;17.50;93.70;;;;;;5009344;28;20136;-82
2023/08/07 10:31:30;;;;;;;11.27;2.45;;;17.50;94.40;;;;;;5017690;28;20587;-83
2023/08/07 10:33:55;;;;;;;11.90;2.70;;;17.50;93.70;;;;;;5009268;28;20423;-83
2023/08/07 10:36:21;;;;;;;10.65;2.60;;;17.60;93.10;;;;;;5009946;28;20053;-83
2023/08/07 10:39:05;;;;;;;11.15;2.72;;;17.60;93.90;;;;;;5015496;28;20447;-83
2023/08/07 10:41:39;;;;;;;10.75;2.53;;;17.60;93.10;;;;;;5015998;28;20060;-82
2023/08/07 10:44:05;;;;;;;15.57;2.70;;;17.60;93.40;;;;;;5013850;28;20053;-83
2023/08/07 10:46:47;;;;;;;10.90;2.65;;;17.60;92.90;;;;;;5015596;28;20041;-83
2023/08/07 10:49:36;;;;;;;10.27;2.90;;;17.70;92.30;;;;;;4996428;28;20046;-83
2023/08/07 10:52:08;;;;;;;10.82;2.90;;;17.60;91.70;;;;;;5012546;28;20046;-81
2023/08/07 10:54:49;;;;;;;9.98;2.30;;;17.60;92.10;;;;;;5011504;28;20054;-83
2023/08/07 10:57:16;;;;;;;11.50;2.65;;;17.60;93.00;;;;;;5011654;28;20104;-83
2023/08/07 10:59:55;;;;;;;12.82;2.50;;;17.60;93.90;;;;;;5012113;28;20539;-82
2023/08/07 11:02:25;;;;;;;11.23;2.70;;;17.50;93.30;;;;;;5010093;28;20038;-83
2023/08/07 11:04:52;;;;;;;14.07;2.55;;;17.50;93.70;;;;;;5011155;28;20084;-83
2023/08/07 11:07:29;;;;;;;10.20;2.30;;;17.50;93.10;;;;;;5012647;28;20097;-82
2023/08/07 11:09:56;;;;;;;9.90;2.58;;;17.50;93.00;;;;;;5005638;28;20154;-82
2023/08/07 11:12:25;;;;;;;11.40;2.42;;;17.60;93.70;;;;;;5014471;28;20471;-82
2023/08/07 11:15:01;;;;;;;10.23;2.38;;;17.70;93.70;;;;;;5005710;28;20050;-82
2023/08/07 11:17:29;;;;;;;9.40;2.55;;;17.70;93.30;;;;;;5012986;28;20052;-82
2023/08/07 11:19:56;;;;;;;6.13;1.90;;;17.80;93.20;;;;;;5026601;28;20049;-82
2023/08/07 11:22:25;;;;;;;10.25;1.70;;;17.90;93.50;;;;;;5015184;28;20049;-82
2023/08/07 11:24:51;;;;;;;7.13;2.17;;;17.90;93.10;;;;;;5014627;28;20042;-82
2023/08/07 11:27:17;;;;;;;10.65;2.08;;;18.00;93.10;;;;;;5014901;28;20042;-83
2023/08/07 11:29:51;;;;;;;8.60;1.92;;;18.00;93.10;;;;;;5015150;28;20096;-83
2023/08/07 11:32:18;;;;;;;7.20;1.75;;;18.00;91.80;;;;;;5015592;28;20057;-83
2023/08/07 11:34:53;;;;;;;8.75;2.00;;;18.10;92.70;;;;;;5015738;28;20061;-83
2023/08/07 11:37:19;;;;;;;7.60;1.90;;;18.10;92.50;;;;;;5014277;28;20472;-82
2023/08/07 11:39:45;;;;;;;12.50;1.90;;;18.10;92.50;;;;;;5015390;28;20053;-83
2023/08/07 11:42:15;;;;;;;8.57;1.98;;;18.10;91.60;;;;;;5013205;28;20061;-83
2023/08/07 11:44:41;;;;;;;8.90;1.65;;;18.20;91.00;;;;;;5014477;28;20041;-82
2023/08/07 11:47:08;;;;;;;10.23;2.17;;;18.20;91.20;;;;;;5014756;28;20121;-82
2023/08/07 11:49:37;;;;;;;6.13;1.90;;;18.20;90.90;;;;;;5015446;28;20057;-82
2023/08/07 11:52:05;;;;;;;9.95;1.90;;;18.20;91.00;;;;;;5014471;28;20049;-83
2023/08/07 11:54:34;;;;;;;6.65;1.90;;;18.20;90.90;;;;;;5015437;28;20064;-83
2023/08/07 11:57:00;;;;;;;12.02;2.35;;;18.30;91.20;;;;;;5015220;28;20519;-83
2023/08/07 11:59:29;;;;;;;7.32;2.00;;;18.30;91.30;;;;;;5015289;28;20126;-83
2023/08/07 12:01:54;;;;;;;9.30;2.10;;;18.30;91.10;;;;;;5013929;28;20046;-82
2023/08/07 12:04:23;;;;;;;9.55;1.80;;;18.40;91.30;;;;;;5015392;28;20041;-83
2023/08/07 12:06:56;;;;;;;8.70;1.85;;;18.40;91.00;;;;;;5015260;28;20049;-83
2023/08/07 12:09:30;;;;;;;11.40;2.45;;;18.40;90.90;;;;;;5015353;28;20466;-83
2023/08/07 12:11:57;;;;;;;10.77;2.30;;;18.30;91.30;;;;;;5015111;28;20438;-82
2023/08/07 12:14:27;;;;;;;12.13;2.35;;;18.40;91.40;;;;;;5015356;28;20550;-83
2023/08/07 12:16:55;;;;;;;7.40;1.92;;;18.40;91.00;;;;;;5013676;28;20527;-82
2023/08/07 12:19:23;;;;;;;12.75;2.50;;;18.30;91.30;;;;;;5014997;28;20052;-82
2023/08/07 12:21:49;;;;;;;10.82;2.13;;;18.30;92.10;;;;;;5014967;28;20385;-82
2023/08/07 12:24:15;;;;;;;10.80;2.28;;;18.30;92.70;;;;;;5015129;28;20053;-83
2023/08/07 12:26:40;;;;;;;9.38;2.20;;;18.20;93.40;;;;;;5014861;28;20042;-82
2023/08/07 12:29:06;;;;;;;8.55;2.00;;;18.20;94.00;;;;;;5014953;28;20408;-83
2023/08/07 12:31:31;;;;;;;9.23;2.15;;;18.10;94.90;;;;;;5014980;28;20048;-83
2023/08/07 12:33:57;;;;;;;7.57;2.30;;;18.10;95.50;;;;;;5014782;28;20558;-83
2023/08/07 12:36:23;;;;;;;11.70;2.17;;;18.10;95.40;;;;;;5014490;28;20042;-82
2023/08/07 12:38:48;;;;;;;8.95;2.20;;;18.10;95.50;;;;;;5014572;28;20042;-82
2023/08/07 12:41:14;;;;;;;9.93;1.90;;;18.10;95.20;;;;;;5013360;28;20076;-82
2023/08/07 12:43:40;;;;;;;7.32;2.28;;;18.10;94.30;;;;;;5014470;28;20058;-82